Time;durP1;ratioP1;P1;durP2;ratioP2;P2;SDS_P1;SDS_P2;PMS_P1;PMS_P2;Temp;Humidity;BMP_temperature;BMP_pressure;BME280_temperature;BME280_humidity;BME280_pressure;Samples;Min_cycle;Max_cycle;Signal;HPM_P1;HPM_P2
2022/05/18 00:01:53;;;;;;;3.88;1.63;;;17.50;99.90;;;;;;5074807;28;20044;-73
2022/05/18 00:04:19;;;;;;;4.40;1.95;;;17.50;99.90;;;;;;5075001;28;20392;-74
2022/05/18 00:06:44;;;;;;;2.92;1.90;;;17.40;99.90;;;;;;5058363;28;20051;-74
2022/05/18 00:09:10;;;;;;;4.13;1.63;;;17.40;99.90;;;;;;5041451;28;20123;-74
2022/05/18 00:11:36;;;;;;;2.80;2.03;;;17.30;99.90;;;;;;5057962;28;20182;-75
2022/05/18 00:14:02;;;;;;;3.88;1.65;;;17.30;99.90;;;;;;5041534;28;20037;-74
2022/05/18 00:16:28;;;;;;;3.78;1.77;;;17.30;99.90;;;;;;5057774;28;20037;-75
2022/05/18 00:18:54;;;;;;;1.90;1.58;;;17.20;99.90;;;;;;5057563;28;20048;-75
2022/05/18 00:21:20;;;;;;;3.63;1.83;;;17.20;99.90;;;;;;5057745;28;20055;-75
2022/05/18 00:23:46;;;;;;;2.83;1.58;;;17.20;99.90;;;;;;5074645;28;20438;-75
2022/05/18 00:26:12;;;;;;;3.85;1.75;;;17.20;99.90;;;;;;5075642;28;20040;-74
2022/05/18 00:28:38;;;;;;;2.97;1.63;;;17.10;99.90;;;;;;5074296;28;20388;-75
2022/05/18 00:31:04;;;;;;;2.83;1.80;;;17.10;99.90;;;;;;5057659;28;20131;-74
2022/05/18 00:33:30;;;;;;;1.70;1.40;;;17.10;99.90;;;;;;5057536;28;20045;-74
2022/05/18 00:35:57;;;;;;;7.32;2.10;;;17.10;99.90;;;;;;5057464;28;20098;-74
2022/05/18 00:38:23;;;;;;;2.63;1.70;;;17.00;99.90;;;;;;5057492;28;20036;-74
2022/05/18 00:40:50;;;;;;;4.75;1.80;;;17.00;99.90;;;;;;5040666;28;20051;-74
2022/05/18 00:43:41;;;;;;;4.38;1.90;;;17.00;99.90;;;;;;5074099;28;20072;-74
2022/05/18 00:46:08;;;;;;;;;;;17.00;99.90;;;;;;5046007;28;20056;-75
2022/05/18 00:48:34;;;;;;;3.72;1.65;;;16.90;99.90;;;;;;5057315;28;20026;-74
2022/05/18 00:51:02;;;;;;;2.90;1.67;;;16.90;99.90;;;;;;5057062;28;20127;-74
2022/05/18 00:53:33;;;;;;;4.38;1.65;;;16.80;99.90;;;;;;5073872;28;20080;-74
2022/05/18 00:56:05;;;;;;;1.98;1.38;;;16.80;99.90;;;;;;5073789;28;20040;-73
2022/05/18 00:58:46;;;;;;;3.40;2.13;;;16.80;99.90;;;;;;5074062;28;20492;-74
2022/05/18 01:01:11;;;;;;;;;;;16.80;99.90;;;;;;5074175;28;20129;-74
2022/05/18 01:03:42;;;;;;;2.42;1.48;;;16.80;99.90;;;;;;5073723;28;19986;-74
2022/05/18 01:06:28;;;;;;;3.95;1.52;;;16.80;99.90;;;;;;5073680;28;20037;-74
2022/05/18 01:09:06;;;;;;;5.03;1.90;;;16.80;99.90;;;;;;5040031;28;20531;-74
2022/05/18 01:11:34;;;;;;;3.05;1.80;;;16.70;99.90;;;;;;5073637;28;20560;-74
2022/05/18 01:14:01;;;;;;;7.45;2.13;;;16.70;99.90;;;;;;5073517;28;20044;-74
2022/05/18 01:16:28;;;;;;;3.35;1.70;;;16.70;99.90;;;;;;5073722;28;20494;-74
2022/05/18 01:18:55;;;;;;;3.42;2.20;;;16.70;99.90;;;;;;5073681;28;20044;-74
2022/05/18 01:21:26;;;;;;;2.08;1.58;;;16.70;99.90;;;;;;5056598;28;20060;-75
2022/05/18 01:24:02;;;;;;;2.90;1.75;;;16.60;99.90;;;;;;5073296;28;20041;-74
2022/05/18 01:26:44;;;;;;;2.88;1.58;;;16.60;99.90;;;;;;5073256;28;20123;-74
2022/05/18 01:29:11;;;;;;;5.32;2.05;;;16.60;99.90;;;;;;5073209;28;20075;-75
2022/05/18 01:31:56;;;;;;;3.65;2.00;;;16.60;99.90;;;;;;5056401;28;20040;-74
2022/05/18 01:34:25;;;;;;;6.03;2.28;;;16.60;99.90;;;;;;5073341;28;20395;-75
2022/05/18 01:36:52;;;;;;;3.75;1.83;;;16.50;99.90;;;;;;5072965;28;20032;-75
2022/05/18 01:39:36;;;;;;;3.33;2.13;;;16.50;99.90;;;;;;5056411;28;20032;-75
2022/05/18 01:42:38;;;;;;;3.55;1.80;;;16.50;99.90;;;;;;5073165;28;20567;-75
2022/05/18 01:45:04;;;;;;;4.20;2.00;;;16.50;99.90;;;;;;5073079;28;20044;-75
2022/05/18 01:47:38;;;;;;;3.88;2.15;;;16.50;99.90;;;;;;5072771;28;20137;-75
2022/05/18 01:50:08;;;;;;;3.38;1.77;;;16.40;99.90;;;;;;5056314;28;20036;-75
2022/05/18 01:52:34;;;;;;;4.95;2.30;;;16.40;99.90;;;;;;5072749;28;20040;-75
2022/05/18 01:55:00;;;;;;;4.75;2.30;;;16.40;99.90;;;;;;5056800;28;20150;-75
2022/05/18 01:57:25;;;;;;;4.10;2.25;;;16.30;99.90;;;;;;5055288;28;20074;-75
2022/05/18 01:59:51;;;;;;;2.92;1.80;;;16.40;99.90;;;;;;5055965;28;20119;-75
2022/05/18 02:02:18;;;;;;;2.60;1.67;;;16.30;99.90;;;;;;5072565;28;20442;-75
2022/05/18 02:04:44;;;;;;;4.13;2.10;;;16.30;99.90;;;;;;5072772;28;20040;-75
2022/05/18 02:07:11;;;;;;;2.53;1.90;;;16.20;99.90;;;;;;5055895;28;20036;-75
2022/05/18 02:09:38;;;;;;;5.57;2.20;;;16.20;99.90;;;;;;5072387;28;20127;-75
2022/05/18 02:12:07;;;;;;;3.22;2.22;;;16.20;99.90;;;;;;5072291;28;20047;-76
2022/05/18 02:14:33;;;;;;;3.65;1.90;;;16.20;99.90;;;;;;5072570;28;20105;-75
2022/05/18 02:16:59;;;;;;;4.07;2.08;;;16.20;99.90;;;;;;5072075;28;20044;-74
2022/05/18 02:19:25;;;;;;;3.58;1.70;;;16.20;99.90;;;;;;5055548;28;20402;-75
2022/05/18 02:21:51;;;;;;;3.50;2.00;;;16.20;99.90;;;;;;5073408;28;20095;-75
2022/05/18 02:24:17;;;;;;;3.13;2.05;;;16.10;99.90;;;;;;5055546;28;20508;-76
2022/05/18 02:26:43;;;;;;;2.22;1.80;;;16.10;99.90;;;;;;5072037;28;20094;-75
2022/05/18 02:29:09;;;;;;;3.20;2.00;;;16.10;99.90;;;;;;5038889;28;20143;-75
2022/05/18 02:31:35;;;;;;;4.25;2.05;;;16.10;99.90;;;;;;5071960;28;20127;-75
2022/05/18 02:34:02;;;;;;;3.00;2.10;;;16.00;99.90;;;;;;5055225;28;20093;-75
2022/05/18 02:36:27;;;;;;;6.05;2.90;;;16.00;99.90;;;;;;5071942;28;20041;-75
2022/05/18 02:38:53;;;;;;;3.08;2.10;;;15.90;99.90;;;;;;5071878;28;20048;-75
2022/05/18 02:41:20;;;;;;;4.53;2.47;;;15.90;99.90;;;;;;5055178;28;20407;-75
2022/05/18 02:43:46;;;;;;;5.93;2.17;;;15.90;99.90;;;;;;5055538;28;20040;-75
2022/05/18 02:46:19;;;;;;;4.30;2.42;;;15.80;99.90;;;;;;5055209;28;20036;-75
2022/05/18 02:48:46;;;;;;;4.95;2.38;;;15.80;99.90;;;;;;5071773;28;20063;-75
2022/05/18 02:51:14;;;;;;;3.65;2.17;;;15.70;99.90;;;;;;5055178;28;20032;-75
2022/05/18 02:53:41;;;;;;;3.78;2.05;;;15.80;99.90;;;;;;5071672;28;20044;-75
2022/05/18 02:56:09;;;;;;;5.43;2.40;;;15.70;99.90;;;;;;5071701;28;20043;-75
2022/05/18 02:58:48;;;;;;;5.40;2.60;;;15.70;99.90;;;;;;5071692;28;20032;-75
2022/05/18 03:01:22;;;;;;;4.60;2.38;;;15.70;99.90;;;;;;5071709;28;20048;-75
2022/05/18 03:03:48;;;;;;;4.28;1.92;;;15.60;99.90;;;;;;5071920;28;20040;-75
2022/05/18 03:06:17;;;;;;;3.50;1.70;;;15.60;99.90;;;;;;5071584;28;20036;-75
2022/05/18 03:08:44;;;;;;;4.18;2.10;;;15.60;99.90;;;;;;5054717;28;20045;-75
2022/05/18 03:11:12;;;;;;;5.60;2.70;;;15.60;99.90;;;;;;5071440;28;20051;-75
2022/05/18 03:13:38;;;;;;;2.72;1.92;;;15.50;99.90;;;;;;5071766;28;20392;-75
2022/05/18 03:16:04;;;;;;;4.68;1.90;;;15.50;99.90;;;;;;5038303;28;20067;-75
2022/05/18 03:18:30;;;;;;;4.88;2.53;;;15.40;99.90;;;;;;5071281;28;20098;-75
2022/05/18 03:23:40;;;;;;;3.90;2.22;;;15.40;99.90;;;;;;5057427;28;20040;-75
2022/05/18 03:26:12;;;;;;;3.25;2.03;;;15.60;99.90;;;;;;5071432;28;20044;-75
2022/05/18 03:28:39;;;;;;;3.50;1.92;;;15.30;99.90;;;;;;5071404;28;20048;-75
2022/05/18 03:31:06;;;;;;;4.43;2.47;;;15.30;99.90;;;;;;5054750;28;20040;-75
2022/05/18 03:33:33;;;;;;;4.38;2.42;;;15.20;99.90;;;;;;5038349;28;20506;-74
2022/05/18 03:35:59;;;;;;;2.58;1.58;;;15.20;99.90;;;;;;5071280;28;20033;-75
2022/05/18 03:38:25;;;;;;;3.33;2.10;;;15.20;99.90;;;;;;5054574;28;20037;-75
2022/05/18 03:40:50;;;;;;;4.80;2.28;;;15.20;99.90;;;;;;5071275;28;20131;-75
2022/05/18 03:43:17;;;;;;;5.30;2.33;;;15.20;99.90;;;;;;5071320;28;20048;-74
2022/05/18 03:45:43;;;;;;;4.88;2.40;;;15.20;99.90;;;;;;5071305;28;20044;-75
2022/05/18 03:48:11;;;;;;;4.75;2.75;;;15.20;99.90;;;;;;5054461;28;20119;-75
2022/05/18 03:50:39;;;;;;;5.00;1.73;;;15.20;99.90;;;;;;5054436;28;20055;-75
2022/05/18 03:53:05;;;;;;;5.05;2.17;;;15.10;99.90;;;;;;5054822;28;20045;-74
2022/05/18 03:55:31;;;;;;;3.78;2.58;;;15.10;99.90;;;;;;5071436;28;20045;-75
2022/05/18 03:57:57;;;;;;;4.30;2.28;;;15.10;99.90;;;;;;5071648;28;20036;-74
2022/05/18 04:00:23;;;;;;;5.03;2.10;;;15.10;99.90;;;;;;5071035;28;20049;-75
2022/05/18 04:02:49;;;;;;;2.92;2.05;;;15.10;99.90;;;;;;5071010;28;20041;-75
2022/05/18 04:05:17;;;;;;;3.53;2.17;;;15.10;99.90;;;;;;5054383;28;20431;-75
2022/05/18 04:07:43;;;;;;;6.20;2.50;;;15.10;99.90;;;;;;5070993;28;20044;-74
2022/05/18 04:10:10;;;;;;;3.90;2.22;;;15.10;99.90;;;;;;5054273;28;20136;-75
2022/05/18 04:12:35;;;;;;;8.95;2.40;;;15.10;99.90;;;;;;5071031;28;20040;-75
2022/05/18 04:15:03;;;;;;;5.85;2.28;;;15.20;99.90;;;;;;5070915;28;20033;-74
2022/05/18 04:17:29;;;;;;;5.45;2.80;;;15.20;99.90;;;;;;5070979;28;20127;-75
2022/05/18 04:19:55;;;;;;;3.65;2.38;;;15.20;99.90;;;;;;5070906;28;20049;-74
2022/05/18 04:22:21;;;;;;;5.25;2.30;;;15.20;99.90;;;;;;5056925;28;20036;-75
2022/05/18 04:24:47;;;;;;;3.25;2.03;;;15.20;99.90;;;;;;5074398;28;20044;-74
2022/05/18 04:27:12;;;;;;;5.20;2.85;;;15.30;99.90;;;;;;5057847;28;20048;-74
2022/05/18 04:29:38;;;;;;;2.90;2.00;;;15.30;99.90;;;;;;5057679;28;20040;-75
2022/05/18 04:32:05;;;;;;;4.05;2.40;;;15.30;99.90;;;;;;5074189;28;20047;-75
2022/05/18 04:34:32;;;;;;;4.38;2.45;;;15.40;99.90;;;;;;5074507;28;20131;-75
2022/05/18 04:36:57;;;;;;;4.25;2.53;;;15.40;99.90;;;;;;5074485;28;20476;-74
2022/05/18 04:39:23;;;;;;;7.78;2.70;;;15.40;99.90;;;;;;5074172;28;20044;-74
2022/05/18 04:41:49;;;;;;;3.35;2.03;;;15.40;99.90;;;;;;5057741;28;20491;-75
2022/05/18 04:44:14;;;;;;;3.53;2.40;;;15.50;99.90;;;;;;5057387;28;20241;-75
2022/05/18 04:46:40;;;;;;;4.03;2.67;;;15.50;99.90;;;;;;5057375;28;20089;-74
2022/05/18 04:49:07;;;;;;;4.25;2.50;;;15.50;99.90;;;;;;5057578;28;20052;-75
2022/05/18 04:51:33;;;;;;;3.50;2.17;;;15.60;99.90;;;;;;5073891;28;20044;-74
2022/05/18 04:53:59;;;;;;;4.18;2.28;;;15.70;99.90;;;;;;5073859;28;20110;-75
2022/05/18 04:56:25;;;;;;;4.32;2.67;;;15.80;99.90;;;;;;5057428;28;20032;-74
2022/05/18 04:58:51;;;;;;;4.05;2.55;;;15.90;99.90;;;;;;5073747;28;20028;-75
2022/05/18 05:01:18;;;;;;;3.78;2.53;;;15.90;99.90;;;;;;5073769;28;20040;-74
2022/05/18 05:03:43;;;;;;;5.35;2.90;;;16.00;99.90;;;;;;5074005;28;20488;-74
2022/05/18 05:06:09;;;;;;;4.72;2.63;;;16.00;99.90;;;;;;5057031;28;20045;-75
2022/05/18 05:08:36;;;;;;;5.50;2.50;;;16.00;99.90;;;;;;5040357;28;20041;-75
2022/05/18 05:11:02;;;;;;;4.75;2.53;;;16.10;99.90;;;;;;5056783;28;20043;-75
2022/05/18 05:13:28;;;;;;;3.40;2.20;;;16.20;99.90;;;;;;5073550;28;20041;-76
2022/05/18 05:16:08;;;;;;;4.05;2.35;;;16.30;99.90;;;;;;5056663;28;20096;-76
2022/05/18 05:18:34;;;;;;;5.88;2.92;;;16.30;99.90;;;;;;5073388;28;20552;-74
2022/05/18 05:21:01;;;;;;;3.55;2.20;;;16.40;99.90;;;;;;5073612;28;20484;-71
2022/05/18 05:23:27;;;;;;;6.07;3.30;;;16.50;99.90;;;;;;5056518;28;20044;-73
2022/05/18 05:25:54;;;;;;;8.43;3.08;;;16.60;99.90;;;;;;5073694;28;20488;-72
2022/05/18 05:28:20;;;;;;;6.57;3.05;;;16.70;99.90;;;;;;5073235;28;20076;-70
2022/05/18 05:30:46;;;;;;;7.38;3.55;;;16.70;99.90;;;;;;5056380;28;20101;-71
2022/05/18 05:33:12;;;;;;;4.78;2.97;;;16.80;99.90;;;;;;5072040;28;20036;-76
2022/05/18 05:35:41;;;;;;;4.03;2.85;;;16.90;99.90;;;;;;5023460;28;20051;-75
2022/05/18 05:38:07;;;;;;;6.20;2.75;;;17.00;99.90;;;;;;5056607;28;20487;-75
2022/05/18 05:40:33;;;;;;;4.70;2.95;;;17.10;99.90;;;;;;5056628;28;20048;-75
2022/05/18 05:42:58;;;;;;;5.45;2.80;;;17.20;99.90;;;;;;5057362;28;20048;-74
2022/05/18 05:45:24;;;;;;;6.60;3.78;;;17.30;99.90;;;;;;5057526;28;20044;-75
2022/05/18 05:47:50;;;;;;;6.13;3.20;;;17.40;99.90;;;;;;5040223;28;20066;-74
2022/05/18 05:50:16;;;;;;;4.05;2.72;;;17.50;99.90;;;;;;5039750;28;20048;-79
2022/05/18 05:52:41;;;;;;;7.93;3.28;;;17.50;99.90;;;;;;5056084;28;20040;-74
2022/05/18 05:55:07;;;;;;;5.28;3.20;;;17.60;99.90;;;;;;5072625;28;20450;-74
2022/05/18 05:57:34;;;;;;;3.42;2.80;;;17.70;99.90;;;;;;5056081;28;20484;-73
2022/05/18 06:00:02;;;;;;;5.28;2.92;;;17.80;99.90;;;;;;5056059;28;20044;-74
2022/05/18 06:02:28;;;;;;;3.67;2.50;;;17.90;99.90;;;;;;5072202;28;20040;-74
2022/05/18 06:04:55;;;;;;;6.60;3.85;;;18.00;99.90;;;;;;5072255;28;20036;-73
2022/05/18 06:07:21;;;;;;;8.10;4.22;;;18.10;99.90;;;;;;5072984;28;20040;-73
2022/05/18 06:09:46;;;;;;;4.80;3.20;;;18.20;99.90;;;;;;5056065;28;20067;-74
2022/05/18 06:12:12;;;;;;;5.50;3.17;;;18.20;99.90;;;;;;5072333;28;20033;-74
2022/05/18 06:14:43;;;;;;;6.05;3.28;;;18.30;99.90;;;;;;5072538;28;20075;-75
2022/05/18 06:17:09;;;;;;;5.85;3.85;;;18.40;99.90;;;;;;5072068;28;20049;-75
2022/05/18 06:19:34;;;;;;;6.00;3.42;;;18.40;99.90;;;;;;5072253;28;20418;-76
2022/05/18 06:22:01;;;;;;;6.00;3.47;;;18.60;99.90;;;;;;5022783;28;20487;-75
2022/05/18 06:24:26;;;;;;;5.97;3.33;;;18.70;99.90;;;;;;5055559;28;20435;-75
2022/05/18 06:26:56;;;;;;;8.27;3.40;;;18.70;99.90;;;;;;5072107;28;20044;-75
2022/05/18 06:29:22;;;;;;;5.03;3.40;;;18.90;99.90;;;;;;5072304;28;20135;-75
2022/05/18 06:31:47;;;;;;;5.90;2.97;;;19.00;99.90;;;;;;5071829;28;20135;-75
2022/05/18 06:34:13;;;;;;;5.07;3.08;;;19.10;99.90;;;;;;5072133;28;20044;-76
2022/05/18 06:36:39;;;;;;;4.93;3.08;;;19.20;99.90;;;;;;5055517;28;20033;-75
2022/05/18 06:39:04;;;;;;;4.93;3.20;;;19.30;99.90;;;;;;5038856;28;20036;-75
2022/05/18 06:41:31;;;;;;;4.88;3.08;;;19.30;99.90;;;;;;5072144;28;20052;-75
2022/05/18 06:44:02;;;;;;;6.13;3.30;;;19.50;99.90;;;;;;5055153;28;20045;-75
2022/05/18 06:46:29;;;;;;;5.15;3.40;;;19.50;99.90;;;;;;5071801;28;20041;-75
2022/05/18 06:48:56;;;;;;;5.78;3.25;;;19.70;99.90;;;;;;5072075;28;20189;-75
2022/05/18 06:51:27;;;;;;;3.63;2.75;;;19.80;99.90;;;;;;5071659;28;20162;-76
2022/05/18 06:53:55;;;;;;;4.95;3.53;;;19.90;99.90;;;;;;5071695;28;20040;-76
2022/05/18 06:56:23;;;;;;;5.03;3.38;;;20.10;99.90;;;;;;5054967;28;20040;-76
2022/05/18 06:58:50;;;;;;;8.73;3.65;;;20.20;99.90;;;;;;5071555;28;20059;-76
2022/05/18 07:01:17;;;;;;;3.92;2.88;;;20.30;99.90;;;;;;5071935;28;20052;-76
2022/05/18 07:03:46;;;;;;;4.45;3.30;;;20.40;99.90;;;;;;5071607;28;20041;-76
2022/05/18 07:06:13;;;;;;;5.53;3.40;;;20.60;99.90;;;;;;5071599;28;20063;-76
2022/05/18 07:08:39;;;;;;;8.93;3.42;;;20.70;99.90;;;;;;5071664;28;20528;-76
2022/05/18 07:11:06;;;;;;;5.57;3.35;;;20.80;99.90;;;;;;5071509;28;20044;-76
2022/05/18 07:13:33;;;;;;;4.63;2.92;;;20.90;99.90;;;;;;5055145;28;20032;-76
2022/05/18 07:15:59;;;;;;;6.75;3.60;;;21.00;99.90;;;;;;5054910;28;20120;-76
2022/05/18 07:18:30;;;;;;;6.95;3.30;;;21.10;99.90;;;;;;5071269;28;20063;-77
2022/05/18 07:20:57;;;;;;;5.75;3.53;;;21.10;99.90;;;;;;5038275;28;20044;-77
2022/05/18 07:23:23;;;;;;;5.65;3.17;;;21.20;99.90;;;;;;5071777;28;20442;-76
2022/05/18 07:25:50;;;;;;;6.80;3.15;;;21.30;99.90;;;;;;5071606;28;20105;-79
2022/05/18 07:28:16;;;;;;;5.93;3.25;;;21.70;99.90;;;;;;5038317;28;20051;-76
2022/05/18 07:30:42;;;;;;;5.82;2.92;;;;;;;;;;5054839;28;20045;-76
2022/05/18 07:33:08;;;;;;;5.95;3.38;;;;;;;;;;5071571;28;20032;-76
2022/05/18 07:35:34;;;;;;;5.18;3.30;;;;;;;;;;5071302;28;20032;-76
2022/05/18 07:38:00;;;;;;;5.15;3.25;;;22.00;99.90;;;;;;5038100;28;20170;-76
2022/05/18 07:40:26;;;;;;;6.53;2.90;;;22.10;99.90;;;;;;5071482;28;20135;-76
2022/05/18 07:42:56;;;;;;;4.82;3.15;;;22.20;99.90;;;;;;5071320;28;20436;-76
2022/05/18 07:45:23;;;;;;;9.13;3.15;;;22.20;99.90;;;;;;5022734;28;20039;-76
2022/05/18 07:47:50;;;;;;;7.95;3.65;;;22.20;99.90;;;;;;5054518;28;20068;-76
2022/05/18 07:50:17;;;;;;;5.07;3.13;;;22.30;99.90;;;;;;5054398;28;20123;-76
2022/05/18 07:52:43;;;;;;;5.78;3.08;;;22.40;99.90;;;;;;5071094;28;20040;-77
2022/05/18 07:55:09;;;;;;;4.95;2.88;;;22.60;99.90;;;;;;5071153;28;20055;-77
2022/05/18 07:57:34;;;;;;;4.30;2.92;;;22.70;99.90;;;;;;5074437;28;20491;-77
2022/05/18 08:00:02;;;;;;;6.05;3.20;;;22.80;99.90;;;;;;5041635;28;20037;-76
2022/05/18 08:02:29;;;;;;;4.32;2.80;;;22.90;99.90;;;;;;5058239;28;20042;-77
2022/05/18 08:04:55;;;;;;;6.68;3.13;;;23.10;99.90;;;;;;5058200;28;20041;-76
2022/05/18 08:07:21;;;;;;;6.43;3.20;;;23.10;99.90;;;;;;5025008;28;20098;-75
2022/05/18 08:15:17;;;;;;;4.18;2.80;;;23.20;99.90;;;;;;5074614;28;20125;-76
2022/05/18 08:17:44;;;;;;;6.50;2.78;;;23.30;99.90;;;;;;5074607;28;20645;-75
2022/05/18 08:20:13;;;;;;;5.45;2.88;;;23.50;99.90;;;;;;5074635;28;20102;-77
2022/05/18 08:22:43;;;;;;;3.58;2.40;;;23.60;99.90;;;;;;5074536;28;20139;-76
2022/05/18 08:25:10;;;;;;;4.43;2.38;;;23.70;99.90;;;;;;5074385;28;20044;-76
2022/05/18 08:27:45;;;;;;;5.05;2.20;;;23.80;99.90;;;;;;5074692;28;20059;-76
2022/05/18 08:30:14;;;;;;;2.92;2.20;;;23.80;99.90;;;;;;5074367;28;20086;-76
2022/05/18 08:32:41;;;;;;;6.10;1.85;;;23.90;99.90;;;;;;5057992;28;20083;-76
2022/05/18 08:35:07;;;;;;;2.50;1.45;;;24.00;99.90;;;;;;5057855;28;20503;-76
2022/05/18 08:37:48;;;;;;;2.58;1.33;;;24.10;99.90;;;;;;5074585;28;20392;-76
2022/05/18 08:40:29;;;;;;;;;;;24.20;99.90;;;;;;5058392;28;20365;-76
2022/05/18 08:43:04;;;;;;;4.88;2.33;;;24.40;99.90;;;;;;5057727;28;20354;-76
2022/05/18 08:45:36;;;;;;;3.92;2.00;;;24.40;99.90;;;;;;5074057;28;20044;-77
2022/05/18 08:48:27;;;;;;;4.63;1.73;;;24.50;99.90;;;;;;5074358;28;20109;-76
2022/05/18 08:50:55;;;;;;;2.55;1.83;;;24.60;99.90;;;;;;5017672;28;20053;-75
2022/05/18 08:53:55;;;;;;;2.63;1.67;;;24.70;99.90;;;;;;5073897;28;20041;-75
2022/05/18 08:56:33;;;;;;;6.28;1.88;;;24.80;99.90;;;;;;5048254;28;20052;-76
2022/05/18 08:59:02;;;;;;;3.15;1.60;;;24.90;99.90;;;;;;5056941;28;20118;-75
2022/05/18 09:01:46;;;;;;;5.15;2.00;;;24.90;99.90;;;;;;5073706;28;20131;-75
2022/05/18 09:04:14;;;;;;;3.78;1.52;;;25.10;99.90;;;;;;5057126;28;20132;-75
2022/05/18 09:06:51;;;;;;;2.95;1.90;;;25.10;99.90;;;;;;5056614;28;20048;-75
2022/05/18 09:12:28;;;;;;;7.75;1.55;;;25.30;99.90;;;;;;5073400;28;20049;-75
2022/05/18 09:14:55;;;;;;;4.10;1.80;;;25.40;99.90;;;;;;5073425;28;20032;-75
2022/05/18 09:18:12;;;;;;;2.25;1.50;;;25.50;99.90;;;;;;5056828;28;20057;-75
2022/05/18 09:21:15;;;;;;;3.40;1.88;;;25.60;99.90;;;;;;5029679;28;20071;-75
2022/05/18 09:24:02;;;;;;;3.17;1.80;;;25.60;99.90;;;;;;5056593;28;20055;-75
2022/05/18 09:26:39;;;;;;;2.30;1.65;;;25.80;99.90;;;;;;5073602;28;20040;-75
2022/05/18 09:29:13;;;;;;;3.10;2.10;;;25.80;99.90;;;;;;5073314;28;20072;-75
2022/05/18 09:32:00;;;;;;;2.85;1.58;;;25.80;99.90;;;;;;5056473;28;20132;-75
2022/05/18 09:34:44;;;;;;;3.00;1.90;;;25.90;99.90;;;;;;5056422;28;20078;-75
2022/05/18 09:37:19;;;;;;;3.83;2.10;;;25.90;99.90;;;;;;5073349;28;20048;-75
2022/05/18 09:39:52;;;;;;;2.70;1.90;;;26.00;99.90;;;;;;5056752;28;20037;-75
2022/05/18 09:42:22;;;;;;;3.00;1.85;;;26.10;99.90;;;;;;5073039;28;20137;-75
2022/05/18 09:44:56;;;;;;;3.22;1.67;;;26.20;99.90;;;;;;5056604;28;20084;-76
2022/05/18 09:47:25;;;;;;;4.00;1.75;;;26.30;99.90;;;;;;5073226;28;20044;-75
2022/05/18 09:49:57;;;;;;;3.50;2.20;;;26.30;99.90;;;;;;5056061;28;20131;-75
2022/05/18 09:52:27;;;;;;;5.53;1.77;;;26.40;99.90;;;;;;5072583;28;20041;-76
2022/05/18 09:54:55;;;;;;;2.25;1.65;;;26.30;99.90;;;;;;5072626;28;20048;-76
2022/05/18 09:57:44;;;;;;;3.42;2.13;;;26.50;99.90;;;;;;5072754;28;20072;-76
2022/05/18 10:00:17;;;;;;;3.15;2.17;;;26.70;99.90;;;;;;5072444;28;20036;-76
2022/05/18 10:08:27;;;;;;;3.83;2.15;;;26.70;99.90;;;;;;5072409;28;20045;-76
2022/05/18 10:11:03;;;;;;;4.10;2.33;;;26.50;99.90;;;;;;5072351;28;20044;-76
2022/05/18 10:13:35;;;;;;;3.17;2.13;;;26.70;99.90;;;;;;5072199;28;20040;-76
2022/05/18 10:16:18;;;;;;;3.72;1.92;;;26.60;99.90;;;;;;5072539;28;20050;-76
2022/05/18 10:18:49;;;;;;;2.95;2.00;;;26.80;99.90;;;;;;5071534;28;20126;-77
2022/05/18 10:21:32;;;;;;;3.60;2.20;;;26.70;99.90;;;;;;5056060;28;20488;-76
2022/05/18 10:24:03;;;;;;;4.10;2.13;;;26.70;99.90;;;;;;5072360;28;20047;-78
2022/05/18 10:26:39;;;;;;;3.75;2.00;;;26.70;99.90;;;;;;5072695;28;20071;-75
2022/05/18 10:29:07;;;;;;;3.28;2.42;;;26.70;99.90;;;;;;5057988;28;20590;-77
2022/05/18 10:31:40;;;;;;;3.22;2.05;;;26.80;99.90;;;;;;5055801;28;20476;-76
2022/05/18 10:34:14;;;;;;;3.00;1.70;;;26.80;99.90;;;;;;5071944;28;20040;-76
2022/05/18 10:36:50;;;;;;;2.70;1.90;;;26.80;99.90;;;;;;5055522;28;20074;-77
2022/05/18 10:39:31;;;;;;;4.90;1.95;;;26.80;99.90;;;;;;5055616;28;20103;-76
2022/05/18 10:41:57;;;;;;;4.38;1.98;;;26.80;99.90;;;;;;5071818;28;20052;-76
2022/05/18 10:44:27;;;;;;;3.55;2.40;;;26.90;99.90;;;;;;5071802;28;20120;-76
2022/05/18 10:46:53;;;;;;;4.03;1.77;;;26.80;99.90;;;;;;5072132;28;20480;-76
2022/05/18 10:49:34;;;;;;;2.70;1.75;;;26.90;99.90;;;;;;5071788;28;20051;-76
2022/05/18 10:52:18;;;;;;;5.63;2.00;;;26.90;99.90;;;;;;5071690;28;20040;-76
2022/05/18 10:55:15;;;;;;;4.03;2.00;;;27.00;99.90;;;;;;5072038;28;20472;-82
2022/05/18 10:57:52;;;;;;;3.45;1.95;;;27.00;99.90;;;;;;5054904;28;20035;-76
2022/05/18 11:00:21;;;;;;;3.90;2.30;;;27.00;99.90;;;;;;5071936;28;20581;-78
2022/05/18 11:03:12;;;;;;;2.83;2.15;;;27.10;99.90;;;;;;5071647;28;20119;-75
2022/05/18 11:05:39;;;;;;;3.83;2.58;;;27.10;99.90;;;;;;5054855;28;20039;-76
2022/05/18 11:08:11;;;;;;;3.85;2.80;;;27.00;99.90;;;;;;5054889;28;20090;-75
2022/05/18 11:10:54;;;;;;;4.35;2.83;;;26.90;99.90;;;;;;5054766;28;20048;-75
2022/05/18 11:13:49;;;;;;;4.80;2.70;;;27.00;99.90;;;;;;5071583;28;20075;-75
2022/05/18 11:16:20;;;;;;;5.63;2.92;;;27.10;99.90;;;;;;5020326;28;20431;-75
2022/05/18 11:19:03;;;;;;;5.15;2.58;;;27.10;99.90;;;;;;5071371;28;20114;-75
2022/05/18 11:22:04;;;;;;;3.90;2.45;;;27.20;99.90;;;;;;5071515;28;20052;-75
2022/05/18 11:24:41;;;;;;;4.97;2.80;;;27.20;99.90;;;;;;4991421;28;20042;-75
2022/05/18 11:27:29;;;;;;;7.38;3.30;;;27.20;99.90;;;;;;5044231;28;20052;-75
2022/05/18 11:30:17;;;;;;;3.92;2.85;;;27.20;99.90;;;;;;5072144;28;20047;-75
2022/05/18 11:32:54;;;;;;;3.88;2.63;;;27.20;99.90;;;;;;5058613;28;20364;-75
2022/05/18 11:35:44;;;;;;;4.47;2.90;;;27.10;99.90;;;;;;5075467;28;20036;-76
2022/05/18 11:38:47;;;;;;;7.05;3.05;;;27.10;99.90;;;;;;5058941;28;20083;-75
2022/05/18 11:41:24;;;;;;;3.10;2.17;;;27.10;99.90;;;;;;5075522;28;20509;-75
2022/05/18 11:44:13;;;;;;;4.45;2.55;;;27.10;99.90;;;;;;5075255;28;20040;-75
2022/05/18 11:46:39;;;;;;;4.38;2.95;;;27.10;99.90;;;;;;5075218;28;20080;-75
2022/05/18 11:49:17;;;;;;;3.33;2.33;;;27.20;99.90;;;;;;5075080;28;20083;-75
2022/05/18 11:51:55;;;;;;;3.38;2.10;;;27.30;99.90;;;;;;5074818;28;20127;-75
2022/05/18 11:54:45;;;;;;;2.47;1.65;;;27.40;99.90;;;;;;5058590;28;20500;-73
2022/05/18 11:57:44;;;;;;;3.15;1.83;;;27.50;99.90;;;;;;5075035;28;20064;-74
2022/05/18 12:00:50;;;;;;;2.65;1.80;;;27.60;99.90;;;;;;5074942;28;20063;-73
2022/05/18 12:03:53;;;;;;;3.15;1.70;;;27.70;99.90;;;;;;5058473;28;20044;-73
2022/05/18 12:06:42;;;;;;;3.13;1.83;;;27.70;99.90;;;;;;5058484;28;20043;-75
2022/05/18 12:09:34;;;;;;;2.35;1.67;;;27.70;98.80;;;;;;5075059;28;20094;-75
2022/05/18 12:12:17;;;;;;;3.17;1.60;;;27.60;99.60;;;;;;5074682;28;20448;-76
2022/05/18 12:15:10;;;;;;;4.22;2.25;;;27.70;99.30;;;;;;5074598;28;20063;-78
2022/05/18 12:17:47;;;;;;;5.22;2.03;;;27.70;99.40;;;;;;5074443;28;20137;-76
2022/05/18 12:20:41;;;;;;;4.03;1.95;;;27.90;99.50;;;;;;5074371;28;20127;-76
2022/05/18 12:23:11;;;;;;;3.38;2.25;;;27.90;99.40;;;;;;5045771;28;20052;-74
2022/05/18 12:25:37;;;;;;;;;;;28.00;99.00;;;;;;5057891;28;20136;-83
2022/05/18 12:28:05;;;;;;;3.88;2.50;;;27.70;98.10;;;;;;5057859;28;19928;-81
2022/05/18 12:30:35;;;;;;;4.63;3.08;;;27.80;99.10;;;;;;5057757;28;20044;-81
2022/05/18 12:33:04;;;;;;;3.50;2.65;;;27.90;98.50;;;;;;5057634;28;20048;-83
2022/05/18 12:35:39;;;;;;;4.93;2.78;;;28.00;99.00;;;;;;5058156;28;20500;-83
2022/05/18 12:38:21;;;;;;;6.50;2.78;;;28.10;99.10;;;;;;5057829;28;20032;-82
2022/05/18 12:41:04;;;;;;;3.40;2.20;;;28.00;99.40;;;;;;5074263;28;20053;-83
2022/05/18 12:43:45;;;;;;;3.28;2.20;;;27.80;99.10;;;;;;5073975;28;20131;-83
2022/05/18 12:46:16;;;;;;;3.25;1.92;;;27.70;99.00;;;;;;5074382;28;20044;-83
2022/05/18 12:48:57;;;;;;;6.60;2.90;;;27.60;99.90;;;;;;5074078;28;20043;-84
2022/05/18 12:51:31;;;;;;;4.47;2.30;;;27.50;99.50;;;;;;5057355;28;20044;-82
2022/05/18 12:54:09;;;;;;;7.85;2.80;;;27.50;99.70;;;;;;5073975;28;20048;-82
2022/05/18 12:56:35;;;;;;;4.85;2.17;;;27.40;99.90;;;;;;5057346;28;20036;-83
2022/05/18 12:59:12;;;;;;;4.32;2.25;;;27.20;99.90;;;;;;5074008;28;20043;-83
2022/05/18 13:01:42;;;;;;;4.78;2.17;;;27.20;99.90;;;;;;5057021;28;20051;-83
2022/05/18 13:04:10;;;;;;;3.40;2.22;;;27.00;99.90;;;;;;5057159;28;20076;-85
2022/05/18 13:06:36;;;;;;;7.00;3.03;;;26.90;99.90;;;;;;5073699;28;20071;-75
2022/05/18 13:09:39;;;;;;;8.80;2.38;;;26.90;99.90;;;;;;5073884;28;20044;-76
2022/05/18 13:12:17;;;;;;;5.15;2.55;;;26.90;99.90;;;;;;5073538;28;20044;-75
2022/05/18 13:15:04;;;;;;;3.22;2.17;;;26.90;99.90;;;;;;5057155;28;20480;-75
2022/05/18 13:17:56;;;;;;;2.83;1.80;;;27.00;99.90;;;;;;5073502;28;20052;-75
2022/05/18 13:20:22;;;;;;;2.42;1.63;;;27.10;99.90;;;;;;5073711;28;20048;-75
2022/05/18 13:23:04;;;;;;;3.17;1.60;;;27.10;99.90;;;;;;5073569;28;20051;-76
2022/05/18 13:25:34;;;;;;;3.47;1.80;;;27.10;99.90;;;;;;5073324;28;20127;-75
2022/05/18 13:28:02;;;;;;;;;;;27.10;99.90;;;;;;5073833;28;20055;-74